sensor_id;sensor_type;location;lat;lon;timestamp;temperature;humidity
62464;SHT31;48512;48.552;9.380;2022-09-09T00:00:20;17.50;62.31
62464;SHT31;48512;48.552;9.380;2022-09-09T00:03:19;17.45;62.62
62464;SHT31;48512;48.552;9.380;2022-09-09T00:06:03;17.49;62.43
62464;SHT31;48512;48.552;9.380;2022-09-09T00:11:39;17.57;61.83
62464;SHT31;48512;48.552;9.380;2022-09-09T00:14:32;17.54;62.59
62464;SHT31;48512;48.552;9.380;2022-09-09T00:17:02;17.56;62.08
62464;SHT31;48512;48.552;9.380;2022-09-09T00:19:41;17.67;61.69
62464;SHT31;48512;48.552;9.380;2022-09-09T00:22:20;17.62;62.26
62464;SHT31;48512;48.552;9.380;2022-09-09T00:24:53;17.62;62.54
62464;SHT31;48512;48.552;9.380;2022-09-09T00:32:36;17.56;63.30
62464;SHT31;48512;48.552;9.380;2022-09-09T00:35:12;17.54;63.34
62464;SHT31;48512;48.552;9.380;2022-09-09T00:37:42;17.54;63.67
62464;SHT31;48512;48.552;9.380;2022-09-09T00:40:35;17.53;63.29
62464;SHT31;48512;48.552;9.380;2022-09-09T00:46:26;17.46;64.04
62464;SHT31;48512;48.552;9.380;2022-09-09T00:49:04;17.63;64.10
62464;SHT31;48512;48.552;9.380;2022-09-09T00:59:48;17.53;63.54
62464;SHT31;48512;48.552;9.380;2022-09-09T01:04:47;17.57;63.47
62464;SHT31;48512;48.552;9.380;2022-09-09T01:07:17;17.56;64.14
62464;SHT31;48512;48.552;9.380;2022-09-09T01:09:56;17.59;63.99
62464;SHT31;48512;48.552;9.380;2022-09-09T01:12:41;17.65;63.16
62464;SHT31;48512;48.552;9.380;2022-09-09T01:15:30;17.56;63.37
62464;SHT31;48512;48.552;9.380;2022-09-09T01:18:08;17.60;63.63
62464;SHT31;48512;48.552;9.380;2022-09-09T01:20:47;17.56;63.78
62464;SHT31;48512;48.552;9.380;2022-09-09T01:26:18;17.36;64.84
62464;SHT31;48512;48.552;9.380;2022-09-09T01:32:45;17.21;65.21
62464;SHT31;48512;48.552;9.380;2022-09-09T01:35:29;17.10;65.63
62464;SHT31;48512;48.552;9.380;2022-09-09T01:37:57;17.03;66.30
62464;SHT31;48512;48.552;9.380;2022-09-09T01:40:24;16.85;67.05
62464;SHT31;48512;48.552;9.380;2022-09-09T01:42:51;17.19;66.52
62464;SHT31;48512;48.552;9.380;2022-09-09T01:45:17;16.92;67.21
62464;SHT31;48512;48.552;9.380;2022-09-09T01:47:43;16.81;67.71
62464;SHT31;48512;48.552;9.380;2022-09-09T01:50:11;16.71;67.75
62464;SHT31;48512;48.552;9.380;2022-09-09T01:52:38;16.67;68.35
62464;SHT31;48512;48.552;9.380;2022-09-09T01:55:05;16.64;68.60
62464;SHT31;48512;48.552;9.380;2022-09-09T01:57:35;16.61;68.75
62464;SHT31;48512;48.552;9.380;2022-09-09T02:07:47;16.60;70.15
62464;SHT31;48512;48.552;9.380;2022-09-09T02:12:48;16.59;70.46
62464;SHT31;48512;48.552;9.380;2022-09-09T02:15:30;16.50;70.59
62464;SHT31;48512;48.552;9.380;2022-09-09T02:17:58;16.47;70.84
62464;SHT31;48512;48.552;9.380;2022-09-09T02:20:26;16.29;71.82
62464;SHT31;48512;48.552;9.380;2022-09-09T02:22:53;16.30;71.62
62464;SHT31;48512;48.552;9.380;2022-09-09T02:25:22;16.33;71.41
62464;SHT31;48512;48.552;9.380;2022-09-09T02:27:50;16.39;70.86
62464;SHT31;48512;48.552;9.380;2022-09-09T02:30:17;16.39;70.95
62464;SHT31;48512;48.552;9.380;2022-09-09T02:32:44;16.29;71.37
62464;SHT31;48512;48.552;9.380;2022-09-09T02:35:16;16.19;72.06
62464;SHT31;48512;48.552;9.380;2022-09-09T02:37:44;16.08;72.57
62464;SHT31;48512;48.552;9.380;2022-09-09T02:40:12;15.91;73.42
62464;SHT31;48512;48.552;9.380;2022-09-09T02:42:46;15.94;73.63
62464;SHT31;48512;48.552;9.380;2022-09-09T02:45:18;15.87;73.28
62464;SHT31;48512;48.552;9.380;2022-09-09T02:53:32;15.43;75.39
62464;SHT31;48512;48.552;9.380;2022-09-09T02:56:08;15.40;75.97
62464;SHT31;48512;48.552;9.380;2022-09-09T02:58:38;15.42;75.83
62464;SHT31;48512;48.552;9.380;2022-09-09T03:01:04;15.33;76.19
62464;SHT31;48512;48.552;9.380;2022-09-09T03:03:30;15.58;75.40
62464;SHT31;48512;48.552;9.380;2022-09-09T03:05:56;15.63;74.55
62464;SHT31;48512;48.552;9.380;2022-09-09T03:08:22;15.63;74.66
62464;SHT31;48512;48.552;9.380;2022-09-09T03:10:47;15.80;73.82
62464;SHT31;48512;48.552;9.380;2022-09-09T03:13:12;15.87;73.68
62464;SHT31;48512;48.552;9.380;2022-09-09T03:15:40;15.90;73.89
62464;SHT31;48512;48.552;9.380;2022-09-09T03:18:05;15.82;74.46
62464;SHT31;48512;48.552;9.380;2022-09-09T03:20:31;15.82;74.35
62464;SHT31;48512;48.552;9.380;2022-09-09T03:22:57;15.81;74.45
62464;SHT31;48512;48.552;9.380;2022-09-09T03:25:23;15.88;74.22
62464;SHT31;48512;48.552;9.380;2022-09-09T03:27:50;15.84;74.60
62464;SHT31;48512;48.552;9.380;2022-09-09T03:30:15;15.85;75.09
62464;SHT31;48512;48.552;9.380;2022-09-09T03:32:41;15.98;74.96
62464;SHT31;48512;48.552;9.380;2022-09-09T03:35:07;15.85;75.19
62464;SHT31;48512;48.552;9.380;2022-09-09T03:37:32;15.74;75.80
62464;SHT31;48512;48.552;9.380;2022-09-09T03:39:57;15.63;76.49
62464;SHT31;48512;48.552;9.380;2022-09-09T03:42:25;15.55;77.76
62464;SHT31;48512;48.552;9.380;2022-09-09T03:44:50;15.57;77.40
62464;SHT31;48512;48.552;9.380;2022-09-09T03:47:20;15.61;76.55
62464;SHT31;48512;48.552;9.380;2022-09-09T03:49:47;15.51;79.01
62464;SHT31;48512;48.552;9.380;2022-09-09T03:52:13;15.51;79.20
62464;SHT31;48512;48.552;9.380;2022-09-09T03:54:39;15.46;79.23
62464;SHT31;48512;48.552;9.380;2022-09-09T03:57:06;15.54;79.08
62464;SHT31;48512;48.552;9.380;2022-09-09T03:59:31;15.51;79.84
62464;SHT31;48512;48.552;9.380;2022-09-09T04:01:57;15.46;79.37
62464;SHT31;48512;48.552;9.380;2022-09-09T04:04:24;15.44;79.30
62464;SHT31;48512;48.552;9.380;2022-09-09T04:06:51;15.42;80.10
62464;SHT31;48512;48.552;9.380;2022-09-09T04:09:17;15.42;80.40
62464;SHT31;48512;48.552;9.380;2022-09-09T04:11:42;15.44;80.08
62464;SHT31;48512;48.552;9.380;2022-09-09T04:14:08;15.51;79.86
62464;SHT31;48512;48.552;9.380;2022-09-09T04:16:34;15.71;79.34
62464;SHT31;48512;48.552;9.380;2022-09-09T04:19:03;15.61;79.74
62464;SHT31;48512;48.552;9.380;2022-09-09T04:21:30;15.65;79.36
62464;SHT31;48512;48.552;9.380;2022-09-09T04:23:55;15.57;79.60
62464;SHT31;48512;48.552;9.380;2022-09-09T04:26:21;15.57;78.90
62464;SHT31;48512;48.552;9.380;2022-09-09T04:28:47;15.63;78.66
62464;SHT31;48512;48.552;9.380;2022-09-09T04:31:18;15.63;79.06
62464;SHT31;48512;48.552;9.380;2022-09-09T04:33:45;15.64;79.46
62464;SHT31;48512;48.552;9.380;2022-09-09T04:36:12;15.60;79.15
62464;SHT31;48512;48.552;9.380;2022-09-09T04:38:37;15.68;79.38
62464;SHT31;48512;48.552;9.380;2022-09-09T04:41:03;15.65;79.40
62464;SHT31;48512;48.552;9.380;2022-09-09T04:43:29;15.58;79.89
62464;SHT31;48512;48.552;9.380;2022-09-09T04:45:56;15.50;80.25
62464;SHT31;48512;48.552;9.380;2022-09-09T04:48:21;15.40;80.82
62464;SHT31;48512;48.552;9.380;2022-09-09T04:53:25;15.42;80.57
62464;SHT31;48512;48.552;9.380;2022-09-09T04:56:03;15.40;80.20
62464;SHT31;48512;48.552;9.380;2022-09-09T04:58:29;15.43;79.61
62464;SHT31;48512;48.552;9.380;2022-09-09T05:00:55;15.46;79.75
62464;SHT31;48512;48.552;9.380;2022-09-09T05:03:21;15.49;79.29
62464;SHT31;48512;48.552;9.380;2022-09-09T05:05:46;15.50;79.28
62464;SHT31;48512;48.552;9.380;2022-09-09T05:08:18;15.55;78.88
62464;SHT31;48512;48.552;9.380;2022-09-09T05:10:44;15.54;78.95
62464;SHT31;48512;48.552;9.380;2022-09-09T05:13:11;15.51;78.74
62464;SHT31;48512;48.552;9.380;2022-09-09T05:15:36;15.55;78.19
62464;SHT31;48512;48.552;9.380;2022-09-09T05:18:02;15.60;78.51
62464;SHT31;48512;48.552;9.380;2022-09-09T05:20:27;15.60;78.51
62464;SHT31;48512;48.552;9.380;2022-09-09T05:22:54;15.54;78.67
62464;SHT31;48512;48.552;9.380;2022-09-09T05:25:24;15.61;78.46
62464;SHT31;48512;48.552;9.380;2022-09-09T05:27:53;15.64;78.03
62464;SHT31;48512;48.552;9.380;2022-09-09T05:30:19;15.65;78.40
62464;SHT31;48512;48.552;9.380;2022-09-09T05:32:44;15.70;78.38
62464;SHT31;48512;48.552;9.380;2022-09-09T05:35:10;15.75;77.91
62464;SHT31;48512;48.552;9.380;2022-09-09T05:37:35;16.47;81.95
62464;SHT31;48512;48.552;9.380;2022-09-09T05:40:01;16.30;77.43
62464;SHT31;48512;48.552;9.380;2022-09-09T05:42:30;16.22;77.35
62464;SHT31;48512;48.552;9.380;2022-09-09T05:44:55;16.23;77.45
62464;SHT31;48512;48.552;9.380;2022-09-09T05:47:21;16.23;76.55
62464;SHT31;48512;48.552;9.380;2022-09-09T05:49:46;16.11;77.17
62464;SHT31;48512;48.552;9.380;2022-09-09T05:52:12;16.15;77.24
62464;SHT31;48512;48.552;9.380;2022-09-09T05:54:37;16.11;77.47
62464;SHT31;48512;48.552;9.380;2022-09-09T05:57:03;16.18;77.74
62464;SHT31;48512;48.552;9.380;2022-09-09T05:59:28;16.23;77.52
62464;SHT31;48512;48.552;9.380;2022-09-09T06:01:54;16.25;77.45
62464;SHT31;48512;48.552;9.380;2022-09-09T06:04:19;16.26;77.33
62464;SHT31;48512;48.552;9.380;2022-09-09T06:06:47;16.30;77.29
62464;SHT31;48512;48.552;9.380;2022-09-09T06:09:13;16.40;76.86
62464;SHT31;48512;48.552;9.380;2022-09-09T06:11:40;16.45;76.29
62464;SHT31;48512;48.552;9.380;2022-09-09T06:14:06;16.46;75.73
62464;SHT31;48512;48.552;9.380;2022-09-09T06:16:33;16.61;75.33
62464;SHT31;48512;48.552;9.380;2022-09-09T06:19:00;16.60;75.35
62464;SHT31;48512;48.552;9.380;2022-09-09T06:21:30;16.70;74.93
62464;SHT31;48512;48.552;9.380;2022-09-09T06:23:57;16.81;75.03
62464;SHT31;48512;48.552;9.380;2022-09-09T06:26:32;16.87;74.71
62464;SHT31;48512;48.552;9.380;2022-09-09T06:28:59;17.00;74.20
62464;SHT31;48512;48.552;9.380;2022-09-09T06:31:27;17.03;73.96
62464;SHT31;48512;48.552;9.380;2022-09-09T06:33:56;17.00;74.24
62464;SHT31;48512;48.552;9.380;2022-09-09T06:36:24;17.11;73.68
62464;SHT31;48512;48.552;9.380;2022-09-09T06:38:50;17.11;73.92
62464;SHT31;48512;48.552;9.380;2022-09-09T06:41:17;17.15;73.83
62464;SHT31;48512;48.552;9.380;2022-09-09T06:43:44;17.16;73.83
62464;SHT31;48512;48.552;9.380;2022-09-09T06:46:20;17.21;73.58
62464;SHT31;48512;48.552;9.380;2022-09-09T06:48:49;17.32;73.32
62464;SHT31;48512;48.552;9.380;2022-09-09T06:53:42;17.36;73.39
62464;SHT31;48512;48.552;9.380;2022-09-09T06:58:35;17.73;70.80
62464;SHT31;48512;48.552;9.380;2022-09-09T07:01:05;17.65;71.66
62464;SHT31;48512;48.552;9.380;2022-09-09T07:03:31;17.57;71.89
62464;SHT31;48512;48.552;9.380;2022-09-09T07:05:56;17.67;72.01
62464;SHT31;48512;48.552;9.380;2022-09-09T07:08:22;18.07;70.04
62464;SHT31;48512;48.552;9.380;2022-09-09T07:10:48;18.11;70.19
62464;SHT31;48512;48.552;9.380;2022-09-09T07:13:15;18.22;69.19
62464;SHT31;48512;48.552;9.380;2022-09-09T07:15:41;18.08;69.86
62464;SHT31;48512;48.552;9.380;2022-09-09T07:18:07;18.22;69.05
62464;SHT31;48512;48.552;9.380;2022-09-09T07:20:35;18.21;69.98
62464;SHT31;48512;48.552;9.380;2022-09-09T07:23:00;18.04;70.27
62464;SHT31;48512;48.552;9.380;2022-09-09T07:25:26;18.42;68.99
62464;SHT31;48512;48.552;9.380;2022-09-09T07:27:54;18.18;69.99
62464;SHT31;48512;48.552;9.380;2022-09-09T07:30:20;18.29;69.49
62464;SHT31;48512;48.552;9.380;2022-09-09T07:32:45;18.18;70.28
62464;SHT31;48512;48.552;9.380;2022-09-09T07:35:10;18.24;70.34
62464;SHT31;48512;48.552;9.380;2022-09-09T07:37:37;18.28;70.08
62464;SHT31;48512;48.552;9.380;2022-09-09T07:40:03;18.37;69.18
62464;SHT31;48512;48.552;9.380;2022-09-09T07:42:28;18.49;68.80
62464;SHT31;48512;48.552;9.380;2022-09-09T07:44:54;18.56;68.34
62464;SHT31;48512;48.552;9.380;2022-09-09T07:47:20;18.51;68.67
62464;SHT31;48512;48.552;9.380;2022-09-09T07:49:46;18.65;69.38
62464;SHT31;48512;48.552;9.380;2022-09-09T07:52:12;18.72;69.10
62464;SHT31;48512;48.552;9.380;2022-09-09T07:54:45;18.90;68.28
62464;SHT31;48512;48.552;9.380;2022-09-09T08:00:17;19.20;67.40
62464;SHT31;48512;48.552;9.380;2022-09-09T08:02:44;19.39;67.99
62464;SHT31;48512;48.552;9.380;2022-09-09T08:05:11;19.54;68.04
62464;SHT31;48512;48.552;9.380;2022-09-09T08:07:38;19.71;67.62
62464;SHT31;48512;48.552;9.380;2022-09-09T08:10:03;19.93;65.46
62464;SHT31;48512;48.552;9.380;2022-09-09T08:12:29;20.06;65.94
62464;SHT31;48512;48.552;9.380;2022-09-09T08:14:54;20.00;66.87
62464;SHT31;48512;48.552;9.380;2022-09-09T08:17:20;20.00;66.53
62464;SHT31;48512;48.552;9.380;2022-09-09T08:19:45;20.23;66.28
62464;SHT31;48512;48.552;9.380;2022-09-09T08:22:11;20.13;67.39
62464;SHT31;48512;48.552;9.380;2022-09-09T08:24:36;20.13;66.51
62464;SHT31;48512;48.552;9.380;2022-09-09T08:27:01;20.27;66.22
62464;SHT31;48512;48.552;9.380;2022-09-09T08:29:27;20.30;65.44
62464;SHT31;48512;48.552;9.380;2022-09-09T08:31:56;20.09;66.67
62464;SHT31;48512;48.552;9.380;2022-09-09T08:34:23;20.21;65.65
62464;SHT31;48512;48.552;9.380;2022-09-09T08:36:50;20.10;66.73
62464;SHT31;48512;48.552;9.380;2022-09-09T08:39:18;19.94;67.46
62464;SHT31;48512;48.552;9.380;2022-09-09T08:52:57;20.13;66.88
62464;SHT31;48512;48.552;9.380;2022-09-09T08:55:32;20.09;65.49
62464;SHT31;48512;48.552;9.380;2022-09-09T08:58:09;20.36;65.44
62464;SHT31;48512;48.552;9.380;2022-09-09T09:00:47;20.44;66.09
62464;SHT31;48512;48.552;9.380;2022-09-09T09:06:06;21.18;63.88
62464;SHT31;48512;48.552;9.380;2022-09-09T09:08:48;21.19;63.25
62464;SHT31;48512;48.552;9.380;2022-09-09T09:11:16;21.33;64.38
62464;SHT31;48512;48.552;9.380;2022-09-09T09:19:22;21.12;61.96
62464;SHT31;48512;48.552;9.380;2022-09-09T09:30:26;21.74;58.51
62464;SHT31;48512;48.552;9.380;2022-09-09T09:32:59;22.23;58.16
62464;SHT31;48512;48.552;9.380;2022-09-09T09:35:25;21.99;59.25
62464;SHT31;48512;48.552;9.380;2022-09-09T09:37:51;22.04;58.89
62464;SHT31;48512;48.552;9.380;2022-09-09T09:40:19;22.13;57.68
62464;SHT31;48512;48.552;9.380;2022-09-09T09:42:53;22.10;58.10
62464;SHT31;48512;48.552;9.380;2022-09-09T09:45:28;21.67;56.19
62464;SHT31;48512;48.552;9.380;2022-09-09T09:48:02;22.06;54.98
62464;SHT31;48512;48.552;9.380;2022-09-09T09:50:29;22.22;55.71
62464;SHT31;48512;48.552;9.380;2022-09-09T09:53:01;22.73;54.03
62464;SHT31;48512;48.552;9.380;2022-09-09T09:55:29;22.20;55.00
62464;SHT31;48512;48.552;9.380;2022-09-09T09:58:01;22.78;55.41
62464;SHT31;48512;48.552;9.380;2022-09-09T10:00:27;23.07;53.31
62464;SHT31;48512;48.552;9.380;2022-09-09T10:02:52;23.29;52.47
62464;SHT31;48512;48.552;9.380;2022-09-09T10:05:22;23.53;51.35
62464;SHT31;48512;48.552;9.380;2022-09-09T10:08:04;23.46;52.15
62464;SHT31;48512;48.552;9.380;2022-09-09T10:18:59;24.53;47.54
62464;SHT31;48512;48.552;9.380;2022-09-09T10:27:01;24.35;47.93
62464;SHT31;48512;48.552;9.380;2022-09-09T10:34:56;24.39;46.80
62464;SHT31;48512;48.552;9.380;2022-09-09T10:40:42;24.58;45.81
62464;SHT31;48512;48.552;9.380;2022-09-09T10:48:46;24.05;46.22
62464;SHT31;48512;48.552;9.380;2022-09-09T10:56:56;24.44;47.85
62464;SHT31;48512;48.552;9.380;2022-09-09T10:59:33;24.58;46.90
62464;SHT31;48512;48.552;9.380;2022-09-09T11:02:16;25.11;43.07
62464;SHT31;48512;48.552;9.380;2022-09-09T11:04:55;24.53;43.31
62464;SHT31;48512;48.552;9.380;2022-09-09T11:07:48;25.11;45.79
62464;SHT31;48512;48.552;9.380;2022-09-09T11:10:25;25.82;44.96
62464;SHT31;48512;48.552;9.380;2022-09-09T11:12:56;25.86;42.23
62464;SHT31;48512;48.552;9.380;2022-09-09T11:15:36;26.50;44.20
62464;SHT31;48512;48.552;9.380;2022-09-09T11:18:04;26.31;40.23
62464;SHT31;48512;48.552;9.380;2022-09-09T11:20:31;26.65;42.09
62464;SHT31;48512;48.552;9.380;2022-09-09T11:23:04;26.23;42.57
62464;SHT31;48512;48.552;9.380;2022-09-09T11:25:35;26.34;39.70
62464;SHT31;48512;48.552;9.380;2022-09-09T11:28:27;26.77;38.99
62464;SHT31;48512;48.552;9.380;2022-09-09T11:33:58;27.87;36.90
62464;SHT31;48512;48.552;9.380;2022-09-09T11:36:50;27.37;37.55
62464;SHT31;48512;48.552;9.380;2022-09-09T11:42:24;27.54;39.29
62464;SHT31;48512;48.552;9.380;2022-09-09T11:44:50;26.45;39.58
62464;SHT31;48512;48.552;9.380;2022-09-09T11:47:26;26.54;40.84
62464;SHT31;48512;48.552;9.380;2022-09-09T11:50:56;25.82;43.75
62464;SHT31;48512;48.552;9.380;2022-09-09T11:55:39;24.94;46.76
62464;SHT31;48512;48.552;9.380;2022-09-09T11:58:14;24.79;46.79
62464;SHT31;48512;48.552;9.380;2022-09-09T12:05:58;26.07;45.29
62464;SHT31;48512;48.552;9.380;2022-09-09T12:08:27;25.90;44.33
62464;SHT31;48512;48.552;9.380;2022-09-09T12:10:56;26.07;45.16
62464;SHT31;48512;48.552;9.380;2022-09-09T12:13:23;26.44;44.96
62464;SHT31;48512;48.552;9.380;2022-09-09T12:15:53;26.95;41.92
62464;SHT31;48512;48.552;9.380;2022-09-09T12:18:35;28.09;42.00
62464;SHT31;48512;48.552;9.380;2022-09-09T12:23:48;28.60;38.44
62464;SHT31;48512;48.552;9.380;2022-09-09T12:31:46;29.22;38.40
62464;SHT31;48512;48.552;9.380;2022-09-09T12:34:22;29.62;37.10
62464;SHT31;48512;48.552;9.380;2022-09-09T12:36:55;30.03;35.13
62464;SHT31;48512;48.552;9.380;2022-09-09T12:39:29;30.11;35.50
62464;SHT31;48512;48.552;9.380;2022-09-09T12:41:58;29.61;35.15
62464;SHT31;48512;48.552;9.380;2022-09-09T12:44:25;29.05;37.62
62464;SHT31;48512;48.552;9.380;2022-09-09T12:46:51;29.91;35.44
62464;SHT31;48512;48.552;9.380;2022-09-09T12:49:28;29.48;35.83
62464;SHT31;48512;48.552;9.380;2022-09-09T12:51:56;28.95;36.29
62464;SHT31;48512;48.552;9.380;2022-09-09T12:54:22;28.21;38.40
62464;SHT31;48512;48.552;9.380;2022-09-09T12:56:49;28.05;36.98
62464;SHT31;48512;48.552;9.380;2022-09-09T12:59:27;29.01;35.99
62464;SHT31;48512;48.552;9.380;2022-09-09T13:01:59;28.73;37.43
62464;SHT31;48512;48.552;9.380;2022-09-09T13:04:25;29.42;36.29
62464;SHT31;48512;48.552;9.380;2022-09-09T13:06:51;29.25;37.11
62464;SHT31;48512;48.552;9.380;2022-09-09T13:09:18;28.83;37.51
62464;SHT31;48512;48.552;9.380;2022-09-09T13:11:52;29.04;38.39
62464;SHT31;48512;48.552;9.380;2022-09-09T13:14:30;28.21;39.12
62464;SHT31;48512;48.552;9.380;2022-09-09T13:17:02;28.88;38.58
62464;SHT31;48512;48.552;9.380;2022-09-09T13:19:35;29.55;37.30
62464;SHT31;48512;48.552;9.380;2022-09-09T13:22:14;30.03;36.94
62464;SHT31;48512;48.552;9.380;2022-09-09T13:24:43;30.01;36.36
62464;SHT31;48512;48.552;9.380;2022-09-09T13:27:28;30.39;35.73
62464;SHT31;48512;48.552;9.380;2022-09-09T13:29:55;29.70;35.25
62464;SHT31;48512;48.552;9.380;2022-09-09T13:32:23;29.93;35.43
62464;SHT31;48512;48.552;9.380;2022-09-09T13:34:59;28.97;35.76
62464;SHT31;48512;48.552;9.380;2022-09-09T13:39:59;29.65;35.93
62464;SHT31;48512;48.552;9.380;2022-09-09T13:42:31;29.73;35.64
62464;SHT31;48512;48.552;9.380;2022-09-09T13:44:58;30.03;34.43
62464;SHT31;48512;48.552;9.380;2022-09-09T13:47:35;30.82;34.02
62464;SHT31;48512;48.552;9.380;2022-09-09T13:50:24;30.39;34.28
62464;SHT31;48512;48.552;9.380;2022-09-09T13:52:53;30.66;33.43
62464;SHT31;48512;48.552;9.380;2022-09-09T13:55:19;29.80;34.08
62464;SHT31;48512;48.552;9.380;2022-09-09T13:57:54;29.29;36.34
62464;SHT31;48512;48.552;9.380;2022-09-09T14:00:20;29.03;35.95
62464;SHT31;48512;48.552;9.380;2022-09-09T14:02:46;30.04;36.35
62464;SHT31;48512;48.552;9.380;2022-09-09T14:05:12;30.52;34.77
62464;SHT31;48512;48.552;9.380;2022-09-09T14:07:39;30.28;34.75
62464;SHT31;48512;48.552;9.380;2022-09-09T14:10:06;29.59;36.42
62464;SHT31;48512;48.552;9.380;2022-09-09T14:12:32;30.49;34.53
62464;SHT31;48512;48.552;9.380;2022-09-09T14:14:58;29.96;35.02
62464;SHT31;48512;48.552;9.380;2022-09-09T14:17:25;30.37;34.35
62464;SHT31;48512;48.552;9.380;2022-09-09T14:19:52;30.68;33.87
62464;SHT31;48512;48.552;9.380;2022-09-09T14:22:18;30.75;34.08
62464;SHT31;48512;48.552;9.380;2022-09-09T14:24:43;30.82;34.19
62464;SHT31;48512;48.552;9.380;2022-09-09T14:27:08;30.68;34.76
62464;SHT31;48512;48.552;9.380;2022-09-09T14:29:34;30.85;34.80
62464;SHT31;48512;48.552;9.380;2022-09-09T14:31:59;31.06;33.35
62464;SHT31;48512;48.552;9.380;2022-09-09T14:34:26;30.69;34.28
62464;SHT31;48512;48.552;9.380;2022-09-09T14:36:51;30.29;34.33
62464;SHT31;48512;48.552;9.380;2022-09-09T14:39:17;29.81;35.57
62464;SHT31;48512;48.552;9.380;2022-09-09T14:41:42;30.48;34.24
62464;SHT31;48512;48.552;9.380;2022-09-09T14:44:08;29.35;34.82
62464;SHT31;48512;48.552;9.380;2022-09-09T14:46:33;29.24;35.11
62464;SHT31;48512;48.552;9.380;2022-09-09T14:48:59;27.76;37.24
62464;SHT31;48512;48.552;9.380;2022-09-09T14:51:25;27.98;37.36
62464;SHT31;48512;48.552;9.380;2022-09-09T14:53:56;28.25;36.57
62464;SHT31;48512;48.552;9.380;2022-09-09T14:56:24;28.68;36.89
62464;SHT31;48512;48.552;9.380;2022-09-09T14:58:53;29.04;35.02
62464;SHT31;48512;48.552;9.380;2022-09-09T15:01:20;28.81;34.32
62464;SHT31;48512;48.552;9.380;2022-09-09T15:03:51;28.59;36.75
62464;SHT31;48512;48.552;9.380;2022-09-09T15:06:17;28.95;35.88
62464;SHT31;48512;48.552;9.380;2022-09-09T15:08:44;29.05;36.14
62464;SHT31;48512;48.552;9.380;2022-09-09T15:11:11;28.36;36.30
62464;SHT31;48512;48.552;9.380;2022-09-09T15:13:38;28.26;36.25
62464;SHT31;48512;48.552;9.380;2022-09-09T15:16:05;28.73;36.18
62464;SHT31;48512;48.552;9.380;2022-09-09T15:18:32;28.81;35.52
62464;SHT31;48512;48.552;9.380;2022-09-09T15:20:58;27.20;38.23
62464;SHT31;48512;48.552;9.380;2022-09-09T15:23:25;27.40;37.75
62464;SHT31;48512;48.552;9.380;2022-09-09T15:25:54;27.51;37.66
62464;SHT31;48512;48.552;9.380;2022-09-09T15:28:21;26.91;37.27
62464;SHT31;48512;48.552;9.380;2022-09-09T15:30:50;26.19;38.76
62464;SHT31;48512;48.552;9.380;2022-09-09T15:33:17;26.52;37.54
62464;SHT31;48512;48.552;9.380;2022-09-09T15:35:42;26.36;38.79
62464;SHT31;48512;48.552;9.380;2022-09-09T15:38:07;26.10;39.04
62464;SHT31;48512;48.552;9.380;2022-09-09T15:40:33;25.81;40.46
62464;SHT31;48512;48.552;9.380;2022-09-09T15:42:58;25.66;39.74
62464;SHT31;48512;48.552;9.380;2022-09-09T15:45:24;25.61;40.77
62464;SHT31;48512;48.552;9.380;2022-09-09T15:47:50;25.49;40.42
62464;SHT31;48512;48.552;9.380;2022-09-09T15:50:15;25.52;42.47
62464;SHT31;48512;48.552;9.380;2022-09-09T15:52:41;25.28;42.02
62464;SHT31;48512;48.552;9.380;2022-09-09T15:55:07;25.49;40.43
62464;SHT31;48512;48.552;9.380;2022-09-09T15:57:33;25.39;40.50
62464;SHT31;48512;48.552;9.380;2022-09-09T16:00:00;24.75;43.91
62464;SHT31;48512;48.552;9.380;2022-09-09T16:02:25;24.93;45.61
62464;SHT31;48512;48.552;9.380;2022-09-09T16:04:50;24.51;42.81
62464;SHT31;48512;48.552;9.380;2022-09-09T16:07:16;24.14;43.66
62464;SHT31;48512;48.552;9.380;2022-09-09T16:09:41;24.44;43.04
62464;SHT31;48512;48.552;9.380;2022-09-09T16:12:08;24.20;43.01
62464;SHT31;48512;48.552;9.380;2022-09-09T16:14:38;24.39;42.22
62464;SHT31;48512;48.552;9.380;2022-09-09T16:17:05;24.28;41.44
62464;SHT31;48512;48.552;9.380;2022-09-09T16:19:31;24.22;41.30
62464;SHT31;48512;48.552;9.380;2022-09-09T16:21:57;24.90;42.92
62464;SHT31;48512;48.552;9.380;2022-09-09T16:24:23;25.54;44.58
62464;SHT31;48512;48.552;9.380;2022-09-09T16:26:53;25.78;41.97
62464;SHT31;48512;48.552;9.380;2022-09-09T16:29:20;25.27;38.94
62464;SHT31;48512;48.552;9.380;2022-09-09T16:31:48;24.70;44.07
62464;SHT31;48512;48.552;9.380;2022-09-09T16:34:16;24.94;43.24
62464;SHT31;48512;48.552;9.380;2022-09-09T16:36:43;24.70;41.34
62464;SHT31;48512;48.552;9.380;2022-09-09T16:39:12;24.87;39.76
62464;SHT31;48512;48.552;9.380;2022-09-09T16:41:38;25.11;39.09
62464;SHT31;48512;48.552;9.380;2022-09-09T16:44:06;24.93;40.02
62464;SHT31;48512;48.552;9.380;2022-09-09T16:46:34;24.44;41.47
62464;SHT31;48512;48.552;9.380;2022-09-09T16:49:02;24.18;41.86
62464;SHT31;48512;48.552;9.380;2022-09-09T16:51:37;23.92;42.50
62464;SHT31;48512;48.552;9.380;2022-09-09T16:54:05;24.08;42.43
62464;SHT31;48512;48.552;9.380;2022-09-09T16:56:32;23.98;42.83
62464;SHT31;48512;48.552;9.380;2022-09-09T16:59:01;23.83;42.80
62464;SHT31;48512;48.552;9.380;2022-09-09T17:01:29;23.69;43.47
62464;SHT31;48512;48.552;9.380;2022-09-09T17:03:57;23.60;43.34
62464;SHT31;48512;48.552;9.380;2022-09-09T17:06:23;23.35;44.47
62464;SHT31;48512;48.552;9.380;2022-09-09T17:08:57;23.50;43.36
62464;SHT31;48512;48.552;9.380;2022-09-09T17:11:24;22.88;45.37
62464;SHT31;48512;48.552;9.380;2022-09-09T17:13:50;22.83;45.11
62464;SHT31;48512;48.552;9.380;2022-09-09T17:16:18;22.70;46.01
62464;SHT31;48512;48.552;9.380;2022-09-09T17:18:44;22.39;46.14
62464;SHT31;48512;48.552;9.380;2022-09-09T17:21:15;22.43;46.56
62464;SHT31;48512;48.552;9.380;2022-09-09T17:23:42;22.80;46.39
62464;SHT31;48512;48.552;9.380;2022-09-09T17:26:10;22.37;47.18
62464;SHT31;48512;48.552;9.380;2022-09-09T17:28:37;22.39;47.78
62464;SHT31;48512;48.552;9.380;2022-09-09T17:31:04;22.12;48.17
62464;SHT31;48512;48.552;9.380;2022-09-09T17:33:32;22.15;47.67
62464;SHT31;48512;48.552;9.380;2022-09-09T17:36:00;22.45;47.21
62464;SHT31;48512;48.552;9.380;2022-09-09T17:38:27;21.99;48.21
62464;SHT31;48512;48.552;9.380;2022-09-09T17:41:06;21.81;48.95
62464;SHT31;48512;48.552;9.380;2022-09-09T17:43:32;21.85;49.11
62464;SHT31;48512;48.552;9.380;2022-09-09T17:48:33;21.49;49.73
62464;SHT31;48512;48.552;9.380;2022-09-09T17:50:59;21.29;50.64
62464;SHT31;48512;48.552;9.380;2022-09-09T17:53:24;21.14;51.06
62464;SHT31;48512;48.552;9.380;2022-09-09T17:55:50;21.44;50.52
62464;SHT31;48512;48.552;9.380;2022-09-09T17:58:16;21.33;50.68
62464;SHT31;48512;48.552;9.380;2022-09-09T18:00:41;21.18;51.01
62464;SHT31;48512;48.552;9.380;2022-09-09T18:03:07;21.09;51.53
62464;SHT31;48512;48.552;9.380;2022-09-09T18:05:33;21.06;51.81